Time;durP1;ratioP1;P1;durP2;ratioP2;P2;SDS_P1;SDS_P2;PMS_P1;PMS_P2;Temp;Humidity;BMP_temperature;BMP_pressure;BME280_temperature;BME280_humidity;BME280_pressure;Samples;Min_cycle;Max_cycle;Signal;HPM_P1;HPM_P2
2021/12/05 00:16:52;;;;;;;123.05;32.63;;;;;;;;;;5148567;27;20057;-66
2021/12/05 00:23:17;;;;;;;68.68;25.27;;;;;;;;;;5148048;27;20563;-65
2021/12/05 00:25:50;;;;;;;98.78;25.95;;;;;;;;;;5132582;27;20043;-65
2021/12/05 00:34:06;;;;;;;87.32;26.13;;;;;;;;;;5087913;28;20079;-65
2021/12/05 00:39:23;;;;;;;60.05;20.58;;;;;;;;;;5147347;27;20050;-67
2021/12/05 01:14:51;;;;;;;35.15;14.85;;;;;;;;;;5143809;27;20050;-65
2021/12/05 01:16:37;;;;;;;43.10;15.27;;;;;;;;;;5126325;27;20095;-65
2021/12/05 01:19:04;;;;;;;42.85;15.50;;;;;;;;;;5140958;27;20412;-65
2021/12/05 01:21:31;;;;;;;35.90;14.75;;;;;;;;;;5122377;27;20070;-65
2021/12/05 01:24:09;;;;;;;38.37;15.23;;;;;;;;;;5141792;27;20058;-65
2021/12/05 01:26:54;;;;;;;39.80;15.48;;;;;;;;;;5142059;27;20772;-64
2021/12/05 01:34:52;;;;;;;34.25;14.75;;;;;;;;;;5134533;27;19925;-65
2021/12/05 01:48:59;;;;;;;31.50;14.48;;;;;;;;;;5116048;27;20447;-67
2021/12/05 01:59:38;;;;;;;37.45;14.60;;;;;;;;;;5142879;27;20421;-66
2021/12/05 02:15:56;;;;;;;36.20;16.67;;;;;;;;;;5135068;27;20108;-65
2021/12/05 02:34:50;;;;;;;40.90;18.73;;;;;;;;;;5150394;27;20053;-65
2021/12/05 02:42:56;;;;;;;46.97;19.38;;;;;;;;;;5145237;27;20057;-65
2021/12/05 02:45:22;;;;;;;43.77;19.00;;;;;;;;;;5153648;27;20502;-65
2021/12/05 02:47:51;;;;;;;45.25;20.45;;;;;;;;;;5152561;27;20095;-65
2021/12/05 02:50:17;;;;;;;40.33;18.58;;;;;;;;;;5150965;27;20100;-66
2021/12/05 02:52:44;;;;;;;40.97;19.85;;;;;;;;;;5123596;27;21439;-65
2021/12/05 02:55:17;;;;;;;35.92;18.30;;;;;;;;;;5150639;27;20039;-65
2021/12/05 03:00:18;;;;;;;45.90;18.63;;;;;;;;;;5147713;27;20074;-66
2021/12/05 03:02:47;;;;;;;44.33;19.63;;;;;;;;;;5141864;27;20057;-67
2021/12/05 03:05:18;;;;;;;43.63;19.70;;;;;;;;;;5148460;27;20050;-65
2021/12/05 03:07:47;;;;;;;40.30;18.03;;;;;;;;;;5141560;27;20502;-65
2021/12/05 03:10:14;;;;;;;42.43;20.03;;;;;;;;;;5126191;27;20054;-66
2021/12/05 03:12:43;;;;;;;35.50;17.25;;;;;;;;;;5121907;27;20536;-67
2021/12/05 03:15:10;;;;;;;44.78;20.05;;;;;;;;;;5135986;27;20051;-65
2021/12/05 03:17:37;;;;;;;46.10;19.90;;;;;;;;;;5146142;27;20074;-65
2021/12/05 03:20:05;;;;;;;52.30;20.37;;;;;;;;;;5148680;27;20047;-65
2021/12/05 03:22:31;;;;;;;44.50;19.97;;;;;;;;;;5149977;27;20134;-65
2021/12/05 03:24:57;;;;;;;37.65;18.85;;;;;;;;;;5124665;27;20406;-65
2021/12/05 03:27:24;;;;;;;39.88;19.63;;;;;;;;;;5143361;27;20046;-65
2021/12/05 03:29:50;;;;;;;42.42;19.25;;;;;;;;;;5151009;27;20043;-65
2021/12/05 03:32:16;;;;;;;39.80;19.08;;;;;;;;;;5154359;27;20142;-65
2021/12/05 03:34:42;;;;;;;41.53;19.88;;;;;;;;;;5154838;27;20039;-67
2021/12/05 03:37:09;;;;;;;43.25;18.55;;;;;;;;;;5151142;27;20051;-65
2021/12/05 03:39:36;;;;;;;41.08;19.23;;;;;;;;;;5138987;27;20047;-65
2021/12/05 03:42:03;;;;;;;38.13;18.10;;;;;;;;;;5146729;27;20046;-65
2021/12/05 03:44:30;;;;;;;41.17;18.15;;;;;;;;;;5153782;27;20053;-65
2021/12/05 03:46:58;;;;;;;55.55;22.50;;;;;;;;;;5154147;27;20110;-67
2021/12/05 03:49:24;;;;;;;47.00;20.77;;;;;;;;;;5151076;27;20046;-65
2021/12/05 03:51:52;;;;;;;41.08;19.20;;;;;;;;;;5152894;27;20047;-66
2021/12/05 03:54:19;;;;;;;41.97;20.37;;;;;;;;;;5153019;27;20046;-65
2021/12/05 03:56:45;;;;;;;;;;;;;;;;;;5155965;27;20035;-68
2021/12/05 03:59:12;;;;;;;44.40;20.10;;;;;;;;;;5152593;27;19919;-65
2021/12/05 04:01:38;;;;;;;41.17;19.43;;;;;;;;;;5153582;27;20410;-65
2021/12/05 04:04:05;;;;;;;40.08;18.85;;;;;;;;;;5150783;27;20166;-65
2021/12/05 04:06:31;;;;;;;46.08;20.40;;;;;;;;;;5153886;27;20065;-65
2021/12/05 04:08:58;;;;;;;42.33;21.67;;;;;;;;;;5133435;27;20050;-65
2021/12/05 04:11:29;;;;;;;44.23;21.17;;;;;;;;;;5134140;27;20042;-65
2021/12/05 04:13:55;;;;;;;48.65;24.85;;;;;;;;;;5131216;27;20042;-66
2021/12/05 04:16:22;;;;;;;51.95;24.50;;;;;;;;;;5151135;27;20035;-65
2021/12/05 04:18:48;;;;;;;49.63;20.98;;;;;;;;;;5152820;27;20046;-67
2021/12/05 04:21:15;;;;;;;44.30;21.48;;;;;;;;;;5141015;27;20488;-65
2021/12/05 04:23:41;;;;;;;49.60;24.07;;;;;;;;;;5143094;27;20475;-65
2021/12/05 04:26:08;;;;;;;67.25;29.02;;;;;;;;;;5154693;27;20188;-65
2021/12/05 04:28:34;;;;;;;54.65;24.90;;;;;;;;;;5154703;27;20106;-65
2021/12/05 04:31:00;;;;;;;65.97;27.10;;;;;;;;;;5153080;27;20043;-66
2021/12/05 04:33:27;;;;;;;49.13;24.57;;;;;;;;;;5135987;27;20058;-65
2021/12/05 04:35:53;;;;;;;54.72;26.15;;;;;;;;;;5154011;27;20039;-66
2021/12/05 04:38:19;;;;;;;71.88;25.85;;;;;;;;;;5154446;27;20390;-65
2021/12/05 04:40:48;;;;;;;54.22;25.77;;;;;;;;;;5153723;27;20046;-65
2021/12/05 04:43:14;;;;;;;53.88;26.23;;;;;;;;;;5154357;27;20054;-65
2021/12/05 04:45:41;;;;;;;53.72;24.30;;;;;;;;;;5153684;27;20046;-65
2021/12/05 04:48:08;;;;;;;56.45;25.15;;;;;;;;;;5154151;27;20129;-65
2021/12/05 04:50:35;;;;;;;55.90;25.77;;;;;;;;;;5152199;27;20451;-65
2021/12/05 04:53:01;;;;;;;;;;;;;;;;;;5154339;27;20448;-66
2021/12/05 04:55:27;;;;;;;56.97;26.67;;;;;;;;;;5153732;27;19919;-65
2021/12/05 04:57:53;;;;;;;67.28;28.25;;;;;;;;;;5135688;27;20459;-68
2021/12/05 05:00:19;;;;;;;;;;;;;;;;;;5154449;27;20042;-65
2021/12/05 05:02:46;;;;;;;55.03;27.15;;;;;;;;;;5153945;27;20447;-64
2021/12/05 05:05:12;;;;;;;69.13;28.95;;;;;;;;;;5133772;27;20121;-65
2021/12/05 05:07:39;;;;;;;;;;;;;;;;;;5152568;27;20051;-65
2021/12/05 05:10:08;;;;;;;69.45;30.88;;;;;;;;;;5153610;27;19919;-66
2021/12/05 05:12:34;;;;;;;67.55;31.80;;;;;;;;;;5153216;27;20039;-65
2021/12/05 05:15:00;;;;;;;56.13;27.63;;;;;;;;;;5134945;27;20039;-64
2021/12/05 05:17:26;;;;;;;61.80;28.60;;;;;;;;;;5154145;27;20405;-65
2021/12/05 05:19:59;;;;;;;60.80;28.77;;;;;;;;;;5152352;27;20508;-66
2021/12/05 05:22:38;;;;;;;57.13;27.10;;;;;;;;;;5142592;27;20146;-65
2021/12/05 05:51:14;;;;;;;58.70;27.20;;;;;;;;;;5147814;27;20069;-67
2021/12/05 05:53:41;;;;;;;46.42;24.60;;;;;;;;;;5152680;27;20035;-66
2021/12/05 05:56:11;;;;;;;;;;;;;;;;;;5149721;27;20142;-66
2021/12/05 05:58:45;;;;;;;53.60;25.93;;;;;;;;;;5149622;27;19959;-66
2021/12/05 06:04:05;;;;;;;61.93;24.00;;;;;;;;;;5147081;27;20513;-66
2021/12/05 06:06:32;;;;;;;43.67;22.33;;;;;;;;;;5131696;27;20081;-66
2021/12/05 06:08:58;;;;;;;48.23;23.07;;;;;;;;;;5150035;27;20054;-66
2021/12/05 06:11:24;;;;;;;52.83;22.23;;;;;;;;;;5145589;27;20039;-66
2021/12/05 06:13:52;;;;;;;42.28;20.48;;;;;;;;;;5148006;27;20077;-65
2021/12/05 06:16:18;;;;;;;47.13;22.47;;;;;;;;;;5149383;27;20043;-66
2021/12/05 06:18:45;;;;;;;46.10;20.00;;;;;;;;;;5141302;27;20074;-65
2021/12/05 06:21:12;;;;;;;55.47;22.03;;;;;;;;;;5141434;27;20122;-65
2021/12/05 06:23:38;;;;;;;42.42;19.98;;;;;;;;;;5144122;27;20047;-65
2021/12/05 06:26:07;;;;;;;43.50;20.37;;;;;;;;;;5151156;27;20039;-66
2021/12/05 06:28:38;;;;;;;53.97;23.27;;;;;;;;;;5149013;27;20039;-65
2021/12/05 06:39:42;;;;;;;46.87;19.23;;;;;;;;;;5150770;27;20099;-65
2021/12/05 06:47:38;;;;;;;41.77;16.17;;;;;;;;;;5129048;28;20119;-65
2021/12/05 06:50:04;;;;;;;38.25;17.80;;;;;;;;;;5142849;27;20047;-65
2021/12/05 06:52:30;;;;;;;41.83;16.92;;;;;;;;;;5149020;27;20042;-65
2021/12/05 06:54:56;;;;;;;47.10;17.98;;;;;;;;;;5148504;27;20399;-65
2021/12/05 06:57:22;;;;;;;41.30;16.55;;;;;;;;;;5151360;27;20054;-65
2021/12/05 06:59:49;;;;;;;41.03;16.25;;;;;;;;;;5131654;27;20043;-66
2021/12/05 07:02:17;;;;;;;41.93;17.50;;;;;;;;;;5150208;27;20375;-65
2021/12/05 07:07:20;;;;;;;40.73;16.47;;;;;;;;;;5132504;27;20055;-65
2021/12/05 07:09:47;;;;;;;48.17;17.23;;;;;;;;;;5149520;27;20095;-65
2021/12/05 07:22:35;;;;;;;45.93;16.97;;;;;;;;;;5154617;27;20171;-66
2021/12/05 07:25:48;;;;;;;38.30;15.60;;;;;;;;;;5135617;27;20050;-65
2021/12/05 07:41:50;;;;;;;39.17;15.13;;;;;;;;;;5141462;27;20042;-65
2021/12/05 07:44:17;;;;;;;38.87;15.63;;;;;;;;;;5153175;27;20100;-66
2021/12/05 07:46:45;;;;;;;40.03;16.47;;;;;;;;;;5152022;27;20042;-67
2021/12/05 07:49:12;;;;;;;32.67;15.63;;;;;;;;;;5155220;27;20126;-66
2021/12/05 07:51:41;;;;;;;41.40;16.30;;;;;;;;;;5154130;27;20118;-66
2021/12/05 07:54:30;;;;;;;40.87;15.47;;;;;;;;;;5154882;27;20042;-65
2021/12/05 07:57:13;;;;;;;36.80;15.83;;;;;;;;;;5138874;27;20046;-64
2021/12/05 08:16:07;;;;;;;41.13;18.35;;;;;;;;;;5155367;27;20114;-66
2021/12/05 08:18:34;;;;;;;45.35;18.98;;;;;;;;;;5153615;27;20098;-66
2021/12/05 08:21:01;;;;;;;39.38;16.73;;;;;;;;;;5154412;27;20039;-66
2021/12/05 08:23:27;;;;;;;41.37;16.03;;;;;;;;;;5152125;27;20102;-66
2021/12/05 08:26:04;;;;;;;41.83;18.45;;;;;;;;;;5152242;27;20092;-65
2021/12/05 08:31:22;;;;;;;45.53;17.43;;;;;;;;;;5153717;27;20043;-66
2021/12/05 08:34:32;;;;;;;37.83;18.33;;;;;;;;;;5154361;27;20054;-66
2021/12/05 10:03:12;;;;;;;51.67;22.02;;;;;;;;;;5131722;27;20051;-65
2021/12/05 10:14:12;;;;;;;49.67;21.38;;;;;;;;;;5137526;27;20039;-65
2021/12/05 10:16:55;;;;;;;55.97;28.20;;;;;;;;;;5130891;28;20039;-66
2021/12/05 10:38:44;;;;;;;40.80;20.92;;;;;;;;;;5151233;27;20063;-66
2021/12/05 10:42:24;;;;;;;44.30;19.75;;;;;;;;;;5149293;27;20370;-66
2021/12/05 10:44:09;;;;;;;41.63;20.15;;;;;;;;;;5128183;27;20394;-66
2021/12/05 10:46:36;;;;;;;47.10;21.75;;;;;;;;;;5132373;27;20435;-66
2021/12/05 10:49:13;;;;;;;61.78;22.65;;;;;;;;;;5115220;27;20046;-66
2021/12/05 10:51:43;;;;;;;49.30;21.77;;;;;;;;;;5141766;27;20039;-66
2021/12/05 10:54:11;;;;;;;45.53;21.90;;;;;;;;;;5135853;27;20103;-65
2021/12/05 10:56:38;;;;;;;43.88;21.70;;;;;;;;;;5134429;27;20119;-66
2021/12/05 10:59:09;;;;;;;46.27;22.27;;;;;;;;;;5150095;27;20042;-65
2021/12/05 11:01:41;;;;;;;51.95;22.80;;;;;;;;;;5152865;27;20038;-67
2021/12/05 11:04:12;;;;;;;49.92;21.77;;;;;;;;;;5137889;27;20046;-66
2021/12/05 11:06:40;;;;;;;38.30;19.25;;;;;;;;;;5144003;27;20209;-67
2021/12/05 11:09:09;;;;;;;43.13;20.60;;;;;;;;;;5119380;27;20605;-65
2021/12/05 11:11:36;;;;;;;50.47;20.20;;;;;;;;;;5142382;27;20513;-66
2021/12/05 11:14:03;;;;;;;43.30;18.70;;;;;;;;;;5137182;27;20116;-66
2021/12/05 11:16:38;;;;;;;43.07;20.10;;;;;;;;;;5117777;27;20042;-65
2021/12/05 11:19:11;;;;;;;45.97;21.20;;;;;;;;;;5133588;27;20035;-66
2021/12/05 11:21:46;;;;;;;42.78;20.05;;;;;;;;;;5115890;27;20083;-65
2021/12/05 11:24:16;;;;;;;45.38;22.48;;;;;;;;;;5134375;27;20051;-65
2021/12/05 11:26:43;;;;;;;40.05;20.17;;;;;;;;;;5141436;27;20047;-65
2021/12/05 11:29:09;;;;;;;42.42;20.73;;;;;;;;;;5123393;27;20119;-65
2021/12/05 11:31:36;;;;;;;42.78;20.83;;;;;;;;;;5116581;27;20047;-63
2021/12/05 11:34:03;;;;;;;47.73;21.27;;;;;;;;;;5137087;27;20498;-64
2021/12/05 11:36:32;;;;;;;38.83;19.97;;;;;;;;;;5145459;27;20034;-65
2021/12/05 11:38:59;;;;;;;45.40;20.50;;;;;;;;;;5134797;27;20043;-65
2021/12/05 11:41:25;;;;;;;42.08;19.92;;;;;;;;;;5137932;27;20039;-65
2021/12/05 11:43:54;;;;;;;;;;;;;;;;;;5134037;27;20086;-65
2021/12/05 11:46:22;;;;;;;49.23;24.03;;;;;;;;;;5142490;27;20014;-64
2021/12/05 11:48:48;;;;;;;39.43;20.33;;;;;;;;;;5115031;27;20039;-65
2021/12/05 11:51:28;;;;;;;48.80;20.25;;;;;;;;;;5139280;27;20054;-65
2021/12/05 11:53:57;;;;;;;47.38;22.73;;;;;;;;;;5114603;27;20082;-65
2021/12/05 11:56:36;;;;;;;38.47;19.77;;;;;;;;;;5100065;27;20157;-65
2021/12/05 11:59:08;;;;;;;40.90;19.63;;;;;;;;;;5145042;27;20268;-65
2021/12/05 12:01:40;;;;;;;41.60;19.10;;;;;;;;;;5129028;27;20473;-65
2021/12/05 12:04:06;;;;;;;44.60;21.00;;;;;;;;;;5146639;27;20091;-64
2021/12/05 12:06:33;;;;;;;36.67;18.85;;;;;;;;;;5144245;27;20049;-66
2021/12/05 12:08:59;;;;;;;43.20;19.88;;;;;;;;;;5148439;27;20107;-65
2021/12/05 12:11:26;;;;;;;39.88;21.13;;;;;;;;;;5135935;27;20068;-65
2021/12/05 12:13:53;;;;;;;46.42;20.25;;;;;;;;;;5128827;27;20539;-65
2021/12/05 12:16:20;;;;;;;46.35;20.13;;;;;;;;;;5154185;27;20041;-65
2021/12/05 12:18:49;;;;;;;45.03;19.90;;;;;;;;;;5147855;27;20047;-66
2021/12/05 12:21:22;;;;;;;46.13;21.55;;;;;;;;;;5133227;27;20043;-65
2021/12/05 12:23:49;;;;;;;37.73;19.20;;;;;;;;;;5132424;27;20047;-67
2021/12/05 12:26:16;;;;;;;41.55;20.20;;;;;;;;;;5136938;27;20035;-65
2021/12/05 12:28:42;;;;;;;49.55;21.75;;;;;;;;;;5153952;27;20051;-65
2021/12/05 12:31:14;;;;;;;48.40;22.77;;;;;;;;;;5152931;27;20583;-65
2021/12/05 12:33:47;;;;;;;45.67;21.37;;;;;;;;;;5153987;27;20046;-65
2021/12/05 12:36:13;;;;;;;45.60;21.58;;;;;;;;;;5135253;27;20065;-65
2021/12/05 12:38:42;;;;;;;51.47;20.95;;;;;;;;;;5134834;27;20042;-65
2021/12/05 12:41:13;;;;;;;45.97;20.92;;;;;;;;;;5153219;27;20046;-64
2021/12/05 12:43:39;;;;;;;42.22;21.15;;;;;;;;;;5134854;27;20435;-65
2021/12/05 12:46:14;;;;;;;45.45;20.17;;;;;;;;;;5132682;27;20453;-64
2021/12/05 12:48:40;;;;;;;40.67;19.55;;;;;;;;;;5134369;27;20050;-64
2021/12/05 12:51:06;;;;;;;38.40;18.65;;;;;;;;;;5152720;27;20457;-65
2021/12/05 12:53:38;;;;;;;37.22;18.27;;;;;;;;;;5134883;27;20038;-64
2021/12/05 12:56:07;;;;;;;36.95;17.52;;;;;;;;;;5152585;27;20049;-64
2021/12/05 12:58:39;;;;;;;40.75;19.50;;;;;;;;;;5133242;27;20046;-64
2021/12/05 13:01:39;;;;;;;38.72;19.73;;;;;;;;;;5149829;27;20055;-64
2021/12/05 13:12:34;;;;;;;36.92;18.33;;;;;;;;;;5130848;27;20103;-64
2021/12/05 13:15:01;;;;;;;42.72;18.70;;;;;;;;;;5111887;27;20059;-63
2021/12/05 13:17:36;;;;;;;35.67;17.40;;;;;;;;;;5135597;27;20035;-64
2021/12/05 13:20:03;;;;;;;34.20;15.32;;;;;;;;;;5150749;27;20047;-67
2021/12/05 13:22:29;;;;;;;34.10;17.10;;;;;;;;;;5151209;27;20125;-65
2021/12/05 13:25:07;;;;;;;34.58;18.05;;;;;;;;;;5150175;27;20474;-66
2021/12/05 13:27:35;;;;;;;33.53;16.70;;;;;;;;;;5151315;27;20046;-65
2021/12/05 13:30:01;;;;;;;33.70;16.67;;;;;;;;;;5151708;27;20050;-65
2021/12/05 13:32:29;;;;;;;32.50;16.40;;;;;;;;;;5151618;27;20125;-65
2021/12/05 13:34:59;;;;;;;34.83;17.67;;;;;;;;;;5152163;27;20054;-66
2021/12/05 13:37:53;;;;;;;32.83;16.52;;;;;;;;;;5133875;27;20066;-65
2021/12/05 13:40:24;;;;;;;35.50;16.98;;;;;;;;;;5149700;27;20046;-65
2021/12/05 13:42:50;;;;;;;35.22;17.45;;;;;;;;;;5152496;27;20106;-65
2021/12/05 13:45:22;;;;;;;31.35;16.92;;;;;;;;;;5151878;27;20652;-65
2021/12/05 13:47:51;;;;;;;37.88;18.23;;;;;;;;;;5152538;27;20042;-65
2021/12/05 13:50:29;;;;;;;34.85;16.98;;;;;;;;;;5151029;27;20050;-65
2021/12/05 13:53:08;;;;;;;37.85;17.77;;;;;;;;;;5133051;27;20145;-65
2021/12/05 13:55:36;;;;;;;37.65;18.85;;;;;;;;;;5152287;27;20046;-65
2021/12/05 13:58:21;;;;;;;34.30;17.00;;;;;;;;;;5151619;27;20050;-65
2021/12/05 14:00:58;;;;;;;33.67;18.05;;;;;;;;;;5151662;27;20047;-65
2021/12/05 14:03:39;;;;;;;30.30;15.85;;;;;;;;;;5133280;27;20046;-65
2021/12/05 14:06:23;;;;;;;35.25;15.88;;;;;;;;;;5151306;27;20213;-65
2021/12/05 14:08:49;;;;;;;34.10;17.08;;;;;;;;;;5152094;27;20039;-65
2021/12/05 14:11:16;;;;;;;32.80;16.98;;;;;;;;;;5132177;27;20053;-65
2021/12/05 14:13:42;;;;;;;37.83;17.42;;;;;;;;;;5152003;27;20051;-65
2021/12/05 14:16:08;;;;;;;37.33;16.75;;;;;;;;;;5152518;27;20069;-65
2021/12/05 14:18:34;;;;;;;33.90;16.92;;;;;;;;;;5153164;27;20098;-65
2021/12/05 14:21:11;;;;;;;37.25;16.25;;;;;;;;;;5150682;27;20062;-66
2021/12/05 14:23:37;;;;;;;35.30;17.48;;;;;;;;;;5138647;27;20098;-65
2021/12/05 14:26:17;;;;;;;32.97;16.50;;;;;;;;;;5137804;27;20078;-67
2021/12/05 14:28:43;;;;;;;37.45;17.40;;;;;;;;;;5157204;27;20047;-65
2021/12/05 14:31:09;;;;;;;36.92;17.92;;;;;;;;;;5156255;27;20039;-65
2021/12/05 14:33:48;;;;;;;38.13;18.08;;;;;;;;;;5138788;27;20050;-65
2021/12/05 14:36:26;;;;;;;36.70;18.10;;;;;;;;;;5154648;27;20051;-65
2021/12/05 14:39:28;;;;;;;47.00;19.20;;;;;;;;;;5157184;27;20050;-64
2021/12/05 14:41:56;;;;;;;44.10;19.98;;;;;;;;;;5052876;28;20053;-64
2021/12/05 14:44:22;;;;;;;44.00;20.27;;;;;;;;;;5118848;27;20847;-65
2021/12/05 14:46:54;;;;;;;41.97;20.83;;;;;;;;;;5154683;27;20391;-64
2021/12/05 14:49:22;;;;;;;37.30;18.85;;;;;;;;;;5120028;27;20127;-65
2021/12/05 14:51:48;;;;;;;41.55;20.48;;;;;;;;;;5156611;27;20451;-63
2021/12/05 14:54:26;;;;;;;42.58;20.95;;;;;;;;;;5137554;27;20096;-64
2021/12/05 14:56:52;;;;;;;39.38;19.70;;;;;;;;;;5133679;27;20043;-63
2021/12/05 14:59:19;;;;;;;41.17;21.08;;;;;;;;;;5155786;27;20042;-64
2021/12/05 15:01:47;;;;;;;49.33;21.77;;;;;;;;;;5155753;27;20109;-63
2021/12/05 15:04:18;;;;;;;47.20;23.25;;;;;;;;;;5153240;27;20046;-63
2021/12/05 15:06:44;;;;;;;45.40;22.35;;;;;;;;;;5155872;27;20510;-63
2021/12/05 15:09:25;;;;;;;45.50;21.00;;;;;;;;;;5155449;27;20320;-64
2021/12/05 15:12:00;;;;;;;41.05;20.33;;;;;;;;;;5137590;27;20047;-63
2021/12/05 15:14:26;;;;;;;40.70;19.90;;;;;;;;;;5155843;27;20295;-64
2021/12/05 15:17:00;;;;;;;47.20;22.05;;;;;;;;;;5155854;27;20486;-63
2021/12/05 15:19:26;;;;;;;43.92;21.98;;;;;;;;;;5156051;27;20042;-64
2021/12/05 15:21:52;;;;;;;45.28;21.92;;;;;;;;;;5156656;27;20046;-64
2021/12/05 15:24:20;;;;;;;37.70;20.98;;;;;;;;;;5120791;27;20046;-64
2021/12/05 15:26:46;;;;;;;47.50;21.83;;;;;;;;;;5137490;27;20046;-64
2021/12/05 15:29:12;;;;;;;44.70;22.38;;;;;;;;;;5155452;27;20047;-65
2021/12/05 15:31:41;;;;;;;42.28;23.08;;;;;;;;;;5156017;27;20582;-63
2021/12/05 15:34:19;;;;;;;53.47;24.13;;;;;;;;;;5154912;27;20050;-63
2021/12/05 15:36:45;;;;;;;47.55;23.80;;;;;;;;;;5155853;27;20067;-63
2021/12/05 15:39:12;;;;;;;43.90;24.20;;;;;;;;;;5155553;27;20427;-64
2021/12/05 15:41:39;;;;;;;45.72;23.35;;;;;;;;;;5156010;27;20042;-63
2021/12/05 15:44:05;;;;;;;51.63;24.38;;;;;;;;;;5137409;27;20146;-64
2021/12/05 15:46:31;;;;;;;54.75;25.95;;;;;;;;;;5155309;27;20121;-64
2021/12/05 15:48:58;;;;;;;50.85;25.00;;;;;;;;;;5155714;27;20062;-64
2021/12/05 15:51:24;;;;;;;66.07;36.38;;;;;;;;;;5154884;27;20065;-63
2021/12/05 15:53:51;;;;;;;54.35;28.65;;;;;;;;;;5155202;27;20043;-63
2021/12/05 15:56:18;;;;;;;52.00;25.75;;;;;;;;;;5155317;27;20089;-64
2021/12/05 15:58:45;;;;;;;51.25;24.90;;;;;;;;;;5120410;27;20397;-63
2021/12/05 16:01:13;;;;;;;53.95;27.02;;;;;;;;;;5155592;27;20072;-64
2021/12/05 16:03:39;;;;;;;56.72;27.83;;;;;;;;;;5155112;27;20044;-64
2021/12/05 16:06:06;;;;;;;59.55;28.33;;;;;;;;;;5155278;27;20402;-63
2021/12/05 16:08:35;;;;;;;60.50;29.27;;;;;;;;;;5154636;27;20053;-63
2021/12/05 16:11:03;;;;;;;57.90;28.77;;;;;;;;;;5137087;27;20079;-64
2021/12/05 16:13:41;;;;;;;57.05;29.27;;;;;;;;;;5154368;27;20049;-64
2021/12/05 16:16:12;;;;;;;59.22;29.63;;;;;;;;;;5155524;27;20122;-63
2021/12/05 16:18:40;;;;;;;62.90;32.45;;;;;;;;;;5154787;27;20050;-64
2021/12/05 16:21:16;;;;;;;57.33;28.50;;;;;;;;;;5136905;27;20047;-63
2021/12/05 16:23:42;;;;;;;68.65;30.05;;;;;;;;;;5154814;27;20347;-64
2021/12/05 16:26:10;;;;;;;54.35;28.77;;;;;;;;;;5155219;27;20148;-63
2021/12/05 16:28:39;;;;;;;52.22;27.27;;;;;;;;;;5154501;27;20510;-63
2021/12/05 16:31:16;;;;;;;62.53;30.23;;;;;;;;;;5154848;27;20054;-63
2021/12/05 16:34:05;;;;;;;57.60;28.85;;;;;;;;;;5136663;27;20043;-63
2021/12/05 16:36:33;;;;;;;53.67;28.23;;;;;;;;;;5143343;27;20047;-63
2021/12/05 16:39:14;;;;;;;65.38;31.02;;;;;;;;;;5155141;27;20125;-63
2021/12/05 16:41:44;;;;;;;60.65;31.58;;;;;;;;;;5154306;27;20042;-65
2021/12/05 16:44:12;;;;;;;64.57;30.90;;;;;;;;;;5153977;27;20058;-63
2021/12/05 16:46:53;;;;;;;60.75;30.02;;;;;;;;;;5151147;27;20053;-63
2021/12/05 16:49:21;;;;;;;57.40;29.15;;;;;;;;;;5136164;27;20054;-64
2021/12/05 16:51:52;;;;;;;65.15;32.30;;;;;;;;;;5154894;27;20054;-63
2021/12/05 16:54:24;;;;;;;56.90;29.38;;;;;;;;;;5154435;27;20047;-62
2021/12/05 16:56:55;;;;;;;59.83;31.33;;;;;;;;;;5131737;27;20454;-63
2021/12/05 16:59:24;;;;;;;67.37;32.30;;;;;;;;;;5154442;27;20050;-64
2021/12/05 17:02:09;;;;;;;60.55;30.75;;;;;;;;;;5154526;27;20039;-63
2021/12/05 17:04:44;;;;;;;68.97;32.78;;;;;;;;;;5150581;27;20050;-64
2021/12/05 17:07:13;;;;;;;72.68;36.20;;;;;;;;;;5135353;27;20129;-63
2021/12/05 17:09:40;;;;;;;68.22;33.80;;;;;;;;;;5134110;27;20050;-62
2021/12/05 17:12:24;;;;;;;62.90;32.28;;;;;;;;;;5154382;27;20042;-63
2021/12/05 17:14:50;;;;;;;64.15;31.48;;;;;;;;;;5154309;27;20482;-63
2021/12/05 17:17:30;;;;;;;64.68;32.72;;;;;;;;;;5153608;27;20038;-62
2021/12/05 17:19:56;;;;;;;60.50;31.90;;;;;;;;;;5154418;27;20137;-63
2021/12/05 17:22:22;;;;;;;62.25;32.38;;;;;;;;;;5154128;27;20038;-64
2021/12/05 17:24:49;;;;;;;68.38;33.75;;;;;;;;;;5153814;27;20046;-63
2021/12/05 17:27:15;;;;;;;;;;;;;;;;;;5153969;27;20070;-63
2021/12/05 17:29:44;;;;;;;74.23;36.63;;;;;;;;;;5152204;27;19953;-63
2021/12/05 17:32:16;;;;;;;78.90;33.90;;;;;;;;;;5154464;27;20082;-63
2021/12/05 17:34:45;;;;;;;67.55;35.35;;;;;;;;;;5134981;27;20508;-63
2021/12/05 17:37:13;;;;;;;73.05;35.33;;;;;;;;;;5154191;27;20042;-62
2021/12/05 17:39:44;;;;;;;63.33;33.77;;;;;;;;;;5152747;27;20074;-62
2021/12/05 17:42:14;;;;;;;61.03;32.28;;;;;;;;;;5153497;27;20046;-62
2021/12/05 17:44:42;;;;;;;62.55;34.60;;;;;;;;;;5152985;27;20143;-63
2021/12/05 17:47:09;;;;;;;68.03;34.50;;;;;;;;;;5135405;27;20046;-63
2021/12/05 17:49:37;;;;;;;69.13;34.92;;;;;;;;;;5153169;27;20046;-63
2021/12/05 17:52:04;;;;;;;68.53;34.25;;;;;;;;;;5152566;27;20046;-63
2021/12/05 17:54:39;;;;;;;67.90;34.65;;;;;;;;;;5134605;27;20099;-64
2021/12/05 17:57:14;;;;;;;70.93;34.17;;;;;;;;;;5136123;27;20054;-63
2021/12/05 18:00:12;;;;;;;69.40;36.22;;;;;;;;;;5134743;27;20054;-63
2021/12/05 18:05:07;;;;;;;;;;;;;;;;;;5153645;27;20055;-63
2021/12/05 18:07:35;;;;;;;64.50;32.53;;;;;;;;;;5152042;27;20259;-63
2021/12/05 18:10:02;;;;;;;64.68;32.85;;;;;;;;;;5153420;27;20047;-63
2021/12/05 18:12:34;;;;;;;64.65;34.28;;;;;;;;;;5134685;27;20050;-63
2021/12/05 18:15:02;;;;;;;58.60;33.30;;;;;;;;;;5153297;27;20119;-63
2021/12/05 18:17:28;;;;;;;57.88;30.55;;;;;;;;;;5151720;27;20034;-63
2021/12/05 18:19:54;;;;;;;59.72;32.58;;;;;;;;;;5152745;27;20050;-63
2021/12/05 18:22:20;;;;;;;53.13;28.58;;;;;;;;;;5153198;27;20065;-63
2021/12/05 18:24:46;;;;;;;50.92;26.55;;;;;;;;;;5152810;27;20444;-63
2021/12/05 18:27:13;;;;;;;49.28;28.48;;;;;;;;;;5150402;27;20034;-63
2021/12/05 18:29:39;;;;;;;54.85;31.50;;;;;;;;;;5127735;27;20035;-63
2021/12/05 18:32:06;;;;;;;50.88;31.55;;;;;;;;;;5143304;27;20039;-63
2021/12/05 18:34:32;;;;;;;64.22;33.40;;;;;;;;;;5137530;27;20035;-63
2021/12/05 18:37:00;;;;;;;58.00;32.08;;;;;;;;;;5128582;27;20066;-63
2021/12/05 18:39:29;;;;;;;60.30;33.55;;;;;;;;;;5132257;27;20047;-62
2021/12/05 18:41:57;;;;;;;63.70;34.42;;;;;;;;;;5118521;27;20062;-62
2021/12/05 18:44:27;;;;;;;63.83;33.42;;;;;;;;;;5114084;27;20047;-63
2021/12/05 18:46:55;;;;;;;51.20;28.95;;;;;;;;;;5138701;27;20956;-62
2021/12/05 18:49:23;;;;;;;57.88;29.08;;;;;;;;;;5151809;27;20039;-62
2021/12/05 18:51:49;;;;;;;57.03;30.30;;;;;;;;;;5126836;27;20042;-62
2021/12/05 18:54:19;;;;;;;53.30;30.00;;;;;;;;;;5123859;27;20047;-62
2021/12/05 18:56:45;;;;;;;54.92;31.35;;;;;;;;;;5127875;27;20133;-63
2021/12/05 18:59:12;;;;;;;;;;;;;;;;;;5148718;27;20042;-62
2021/12/05 19:06:54;;;;;;;60.03;31.85;;;;;;;;;;5144989;27;20145;-62
2021/12/05 19:09:40;;;;;;;59.25;30.85;;;;;;;;;;5152229;27;20087;-62
2021/12/05 19:12:07;;;;;;;52.90;30.67;;;;;;;;;;5142911;27;20371;-61
2021/12/05 19:14:36;;;;;;;48.07;29.90;;;;;;;;;;5135525;27;20730;-61
2021/12/05 19:17:05;;;;;;;57.95;32.92;;;;;;;;;;5143987;27;20049;-62
2021/12/05 19:19:31;;;;;;;57.87;33.87;;;;;;;;;;5140559;27;20043;-62
2021/12/05 19:22:03;;;;;;;56.65;35.20;;;;;;;;;;5128867;27;20147;-62
2021/12/05 19:24:30;;;;;;;63.03;34.80;;;;;;;;;;5155323;27;20035;-62
2021/12/05 19:27:00;;;;;;;56.17;35.25;;;;;;;;;;5153887;27;20385;-62
2021/12/05 19:29:29;;;;;;;56.47;33.33;;;;;;;;;;5123787;27;20061;-62
2021/12/05 19:31:56;;;;;;;58.03;33.97;;;;;;;;;;5146184;27;20043;-62
2021/12/05 19:34:22;;;;;;;57.58;32.25;;;;;;;;;;5103459;27;20047;-62
2021/12/05 19:36:48;;;;;;;;;;;;;;;;;;5138317;27;20038;-63
2021/12/05 19:39:15;;;;;;;56.03;32.88;;;;;;;;;;5149513;27;19924;-62
2021/12/05 19:41:41;;;;;;;56.25;32.72;;;;;;;;;;5152796;27;20482;-63
2021/12/05 19:44:08;;;;;;;52.28;32.05;;;;;;;;;;5111409;27;20072;-62
2021/12/05 19:46:34;;;;;;;;;;;;;;;;;;5141073;27;20487;-62
2021/12/05 19:49:00;;;;;;;46.37;29.60;;;;;;;;;;5141006;27;20021;-63
2021/12/05 19:51:27;;;;;;;48.03;27.48;;;;;;;;;;5140103;27;20046;-62
2021/12/05 19:53:54;;;;;;;41.57;25.93;;;;;;;;;;5117267;27;20435;-63
2021/12/05 19:56:23;;;;;;;36.17;23.70;;;;;;;;;;5121448;27;20042;-62
2021/12/05 19:58:49;;;;;;;34.83;22.60;;;;;;;;;;5147598;27;20132;-62
2021/12/05 20:01:15;;;;;;;;;;;;;;;;;;5138569;27;20039;-61
2021/12/05 20:03:43;;;;;;;35.80;23.67;;;;;;;;;;5127851;27;19919;-62
2021/12/05 20:06:10;;;;;;;36.60;23.80;;;;;;;;;;5138023;27;20082;-62
2021/12/05 20:08:36;;;;;;;36.00;23.53;;;;;;;;;;5136660;27;20050;-62
2021/12/05 20:11:03;;;;;;;34.57;23.10;;;;;;;;;;5143933;27;20050;-62
2021/12/05 20:13:30;;;;;;;32.83;22.52;;;;;;;;;;5144262;27;20103;-62
2021/12/05 20:15:56;;;;;;;30.70;20.83;;;;;;;;;;5138005;27;20054;-62
2021/12/05 20:18:22;;;;;;;31.33;21.25;;;;;;;;;;5142542;27;20046;-61